Time;durP1;ratioP1;P1;durP2;ratioP2;P2;SDS_P1;SDS_P2;PMS_P1;PMS_P2;Temp;Humidity;BMP_temperature;BMP_pressure;BME280_temperature;BME280_humidity;BME280_pressure;Samples;Min_cycle;Max_cycle;Signal;HPM_P1;HPM_P2
2022/02/27 00:02:08;;;;;;;7.65;3.25;;;;;;;-1.22;97.43;100238.88;5043804;28;20107;-72
2022/02/27 00:04:34;;;;;;;8.65;3.35;;;;;;;-1.21;96.02;100229.94;5015025;28;20030;-72
2022/02/27 00:06:59;;;;;;;13.20;3.50;;;;;;;-1.10;95.85;100245.25;5029707;28;20026;-73
2022/02/27 00:09:24;;;;;;;20.20;4.68;;;;;;;-1.12;95.53;100229.41;5028729;28;20064;-72
2022/02/27 00:11:50;;;;;;;9.95;4.32;;;;;;;-1.11;95.02;100235.56;5026416;28;20033;-72
2022/02/27 00:14:16;;;;;;;8.30;3.45;;;;;;;-1.23;95.59;100237.19;5025389;28;20033;-72
2022/02/27 00:16:41;;;;;;;8.50;2.65;;;;;;;-1.22;96.21;100227.41;5030960;28;20021;-71
2022/02/27 00:19:06;;;;;;;12.70;2.60;;;;;;;-1.28;95.79;100230.41;5024302;28;20096;-72
2022/02/27 00:21:32;;;;;;;6.32;2.17;;;;;;;-1.50;95.08;100191.91;5027435;28;20104;-73
2022/02/27 00:23:57;;;;;;;8.35;2.20;;;;;;;-1.29;94.50;100221.59;5020420;28;20029;-73
2022/02/27 00:26:23;;;;;;;7.65;2.20;;;;;;;-1.17;93.56;100231.50;5014083;28;20032;-73
2022/02/27 00:28:48;;;;;;;8.70;2.20;;;;;;;-1.19;93.45;100212.13;5035078;28;20021;-72
2022/02/27 00:31:13;;;;;;;8.15;2.25;;;;;;;-1.20;92.90;100207.78;5017855;28;20033;-73
2022/02/27 00:33:38;;;;;;;13.77;1.95;;;;;;;-1.07;92.95;100214.97;5015202;28;20123;-73
2022/02/27 00:36:04;;;;;;;7.30;2.20;;;;;;;-1.21;92.32;100198.09;5037155;28;20025;-73
2022/02/27 00:38:30;;;;;;;7.35;2.78;;;;;;;-1.14;92.79;100231.28;5016597;28;20022;-73
2022/02/27 00:40:56;;;;;;;6.65;2.35;;;;;;;-1.26;92.85;100200.16;5042661;28;20047;-73
2022/02/27 00:43:21;;;;;;;7.97;2.53;;;;;;;-1.14;92.98;100220.66;5034746;28;20021;-73
2022/02/27 00:45:46;;;;;;;9.05;2.58;;;;;;;-1.35;93.38;100190.97;5044680;28;20029;-73
2022/02/27 00:48:12;;;;;;;8.40;2.60;;;;;;;-1.24;93.73;100221.34;5049037;28;20108;-74
2022/02/27 00:50:37;;;;;;;10.73;2.45;;;;;;;-1.27;93.80;100209.09;5036119;28;20021;-73
2022/02/27 00:53:02;;;;;;;11.30;2.60;;;;;;;-1.24;93.94;100229.28;5047277;28;20025;-73
2022/02/27 00:55:28;;;;;;;9.18;2.50;;;;;;;-1.20;94.25;100233.50;5044714;28;20048;-73
2022/02/27 00:57:53;;;;;;;9.07;2.20;;;;;;;-1.42;93.93;100194.09;5039694;28;20034;-73
2022/02/27 01:00:18;;;;;;;7.05;2.22;;;;;;;-1.09;94.00;100222.22;5046537;28;20035;-74
2022/02/27 01:02:44;;;;;;;8.13;2.55;;;;;;;-1.09;93.94;100223.06;5020732;28;20120;-73
2022/02/27 01:05:09;;;;;;;11.32;2.70;;;;;;;-1.06;94.36;100229.97;5034065;28;20397;-73
2022/02/27 01:07:35;;;;;;;9.00;3.22;;;;;;;-0.93;94.12;100223.81;5033788;28;20080;-74
2022/02/27 01:10:00;;;;;;;10.43;2.80;;;;;;;-0.90;93.14;100217.44;5029981;28;20029;-74
2022/02/27 01:12:25;;;;;;;10.05;2.63;;;;;;;-0.93;93.23;100193.72;5034312;28;20026;-74
2022/02/27 01:14:51;;;;;;;13.30;2.70;;;;;;;-0.98;92.53;100171.91;5034911;28;20044;-74
2022/02/27 01:17:16;;;;;;;10.32;2.97;;;;;;;-0.71;92.96;100210.06;5032709;28;20060;-74
2022/02/27 01:19:41;;;;;;;11.68;2.55;;;;;;;-0.67;92.42;100219.50;5012287;28;20037;-74
2022/02/27 01:22:07;;;;;;;12.30;3.05;;;;;;;-0.57;92.46;100213.63;5032346;28;20546;-75
2022/02/27 01:24:32;;;;;;;13.82;3.15;;;;;;;-0.65;92.02;100194.66;5022247;28;20422;-74
2022/02/27 01:26:58;;;;;;;11.13;2.70;;;;;;;-0.79;91.54;100177.75;5015797;28;20025;-74
2022/02/27 01:29:23;;;;;;;10.60;3.03;;;;;;;-0.74;92.16;100180.97;5018965;28;20029;-74
2022/02/27 01:31:49;;;;;;;6.88;2.60;;;;;;;-0.77;92.24;100196.28;5026520;28;20083;-74
2022/02/27 01:34:14;;;;;;;10.10;2.88;;;;;;;-0.80;93.01;100213.28;5016015;28;20033;-74
2022/02/27 01:36:39;;;;;;;7.32;2.63;;;;;;;-0.83;93.56;100204.66;5033620;28;20033;-75
2022/02/27 01:39:05;;;;;;;13.40;3.05;;;;;;;-0.98;94.19;100185.19;5028938;28;20037;-75
2022/02/27 01:41:30;;;;;;;10.27;3.33;;;;;;;-0.79;93.99;100192.84;5033682;28;20033;-74
2022/02/27 01:43:55;;;;;;;6.30;2.50;;;;;;;-0.93;93.93;100185.75;5015729;28;20029;-74
2022/02/27 01:46:21;;;;;;;8.32;2.80;;;;;;;-0.79;93.35;100196.38;5021687;28;20485;-74
2022/02/27 01:48:46;;;;;;;9.43;2.75;;;;;;;-0.84;93.79;100198.47;5029195;28;20431;-74
2022/02/27 01:51:12;;;;;;;8.02;2.85;;;;;;;-1.03;94.07;100181.97;5035400;28;20039;-74
2022/02/27 01:53:38;;;;;;;9.57;2.65;;;;;;;-1.14;93.86;100148.13;5035495;28;20055;-74
2022/02/27 01:56:04;;;;;;;10.32;3.03;;;;;;;-1.02;94.21;100170.38;5022659;28;20029;-74
2022/02/27 01:58:31;;;;;;;9.38;2.58;;;;;;;-1.26;94.33;100163.00;5017995;28;20030;-74
2022/02/27 02:00:58;;;;;;;7.18;2.35;;;;;;;-1.47;95.16;100122.69;5030420;28;20640;-74
2022/02/27 02:03:25;;;;;;;7.22;2.90;;;;;;;-0.93;95.31;100193.72;5017077;28;20048;-74
2022/02/27 02:05:50;;;;;;;10.20;2.65;;;;;;;-1.06;95.31;100184.81;5015249;28;20037;-75
2022/02/27 02:08:16;;;;;;;10.30;2.80;;;;;;;-1.17;95.72;100175.72;5035741;28;20029;-74
2022/02/27 02:10:42;;;;;;;9.23;3.05;;;;;;;-1.19;95.71;100184.72;5017768;28;20029;-74
2022/02/27 02:13:07;;;;;;;11.07;2.80;;;;;;;-1.17;96.10;100189.00;5036941;28;20036;-73
2022/02/27 02:15:33;;;;;;;9.38;3.47;;;;;;;-1.13;96.82;100182.56;5030183;28;20819;-73
2022/02/27 02:17:58;;;;;;;10.65;3.00;;;;;;;-1.22;96.16;100167.19;5018769;28;20032;-73
2022/02/27 02:20:24;;;;;;;9.43;3.05;;;;;;;-1.22;95.97;100163.69;5046213;28;20109;-74
2022/02/27 02:22:49;;;;;;;15.10;2.90;;;;;;;-1.37;96.43;100144.22;5044522;28;20056;-73
2022/02/27 02:25:14;;;;;;;12.65;3.20;;;;;;;-1.40;96.48;100155.88;5043352;28;20090;-74
2022/02/27 02:27:40;;;;;;;12.23;3.13;;;;;;;-1.26;96.90;100162.16;5041657;28;20025;-74
2022/02/27 02:30:09;;;;;;;12.15;3.00;;;;;;;-1.45;97.60;100144.69;5037427;28;20163;-74
2022/02/27 02:33:04;;;;;;;8.07;2.78;;;;;;;-1.39;97.72;100167.34;5013825;28;20021;-74
2022/02/27 02:35:30;;;;;;;13.80;3.00;;;;;;;-1.22;97.59;100177.81;5028501;28;20068;-74
2022/02/27 02:37:56;;;;;;;5.93;2.72;;;;;;;-1.32;97.58;100169.53;5014882;28;20112;-74
2022/02/27 02:40:23;;;;;;;7.90;3.03;;;;;;;-1.32;97.19;100148.31;5003096;28;20025;-74
2022/02/27 02:42:49;;;;;;;13.13;2.85;;;;;;;-1.32;97.66;100163.38;5035007;28;20041;-74
2022/02/27 02:45:14;;;;;;;7.78;3.30;;;;;;;-1.37;97.82;100163.66;5006883;28;20395;-74
2022/02/27 02:47:41;;;;;;;8.98;3.00;;;;;;;-1.39;97.62;100146.13;5012444;28;20030;-74
2022/02/27 02:50:07;;;;;;;15.35;3.58;;;;;;;-1.19;98.12;100177.59;5013842;28;20076;-74
2022/02/27 02:52:33;;;;;;;10.43;3.28;;;;;;;-1.43;98.34;100141.97;5015835;28;20026;-74
2022/02/27 02:54:58;;;;;;;12.00;3.28;;;;;;;-1.50;98.69;100138.81;5033652;28;20029;-74
2022/02/27 02:57:23;;;;;;;11.27;3.60;;;;;;;-1.40;98.59;100166.50;5037725;28;20029;-74
2022/02/27 02:59:50;;;;;;;13.35;3.75;;;;;;;-1.40;98.67;100160.34;5031299;28;20052;-73
2022/02/27 03:02:15;;;;;;;11.55;4.03;;;;;;;-1.47;98.72;100149.25;5019596;28;20049;-74
2022/02/27 03:04:41;;;;;;;11.98;3.75;;;;;;;-1.62;99.74;100129.81;5031770;28;20063;-74
2022/02/27 03:07:06;;;;;;;12.70;3.60;;;;;;;-1.66;100.00;100120.31;5043713;28;20380;-73
2022/02/27 03:09:35;;;;;;;9.68;3.53;;;;;;;-1.45;99.95;100151.81;5033213;28;20040;-74
2022/02/27 03:12:01;;;;;;;7.68;3.05;;;;;;;-1.46;99.83;100152.78;5016867;28;20020;-74
2022/02/27 03:14:26;;;;;;;11.25;3.08;;;;;;;-1.87;99.34;100097.75;5024894;28;20034;-73
2022/02/27 03:16:51;;;;;;;12.35;3.08;;;;;;;-1.70;100.00;100121.47;5012016;28;20041;-73
2022/02/27 03:19:16;;;;;;;9.30;3.33;;;;;;;-1.65;100.00;100123.81;5035330;28;20409;-73
2022/02/27 03:21:42;;;;;;;8.77;3.42;;;;;;;-1.53;100.00;100143.47;5029479;28;20032;-73
2022/02/27 03:24:07;;;;;;;6.10;3.15;;;;;;;-1.59;100.00;100126.97;5027978;28;20482;-73
2022/02/27 03:26:32;;;;;;;9.55;3.33;;;;;;;-1.49;100.00;100140.53;5033701;28;20396;-73
2022/02/27 03:28:58;;;;;;;12.68;3.40;;;;;;;-1.58;100.00;100131.31;5026175;28;20104;-73
2022/02/27 03:31:23;;;;;;;7.85;3.28;;;;;;;-1.46;100.00;100153.63;5040751;28;20023;-76
2022/02/27 03:33:48;;;;;;;10.57;3.65;;;;;;;-1.33;100.00;100161.69;5036283;28;20029;-73
2022/02/27 03:36:14;;;;;;;10.85;4.10;;;;;;;-1.29;99.66;100152.56;5038879;28;20060;-73
2022/02/27 03:38:40;;;;;;;18.08;3.65;;;;;;;-1.35;99.92;100155.63;5015647;28;20076;-73
2022/02/27 03:41:05;;;;;;;14.10;4.43;;;;;;;-1.32;99.21;100124.41;5031308;28;20057;-73
2022/02/27 03:43:31;;;;;;;11.75;3.65;;;;;;;-1.11;98.59;100143.47;5013730;28;20060;-73
2022/02/27 03:45:56;;;;;;;14.43;4.32;;;;;;;-0.83;97.61;100164.78;5014571;28;20025;-73
2022/02/27 03:48:22;;;;;;;10.55;3.67;;;;;;;-0.95;96.92;100145.16;5034821;28;20033;-73
2022/02/27 03:50:47;;;;;;;10.10;4.03;;;;;;;-0.95;96.35;100146.00;5026453;28;20032;-73
2022/02/27 03:53:12;;;;;;;11.45;4.35;;;;;;;-0.88;96.25;100151.78;5018644;28;20074;-72
2022/02/27 03:55:38;;;;;;;11.25;4.35;;;;;;;-0.91;95.32;100122.78;5037732;28;20030;-72
2022/02/27 03:58:03;;;;;;;16.23;4.47;;;;;;;-0.81;94.97;100125.66;5012334;28;20036;-72
2022/02/27 04:00:29;;;;;;;12.75;3.72;;;;;;;-0.67;95.04;100163.69;5032636;28;20034;-73
2022/02/27 04:02:54;;;;;;;12.75;4.13;;;;;;;-0.80;94.98;100148.66;5029464;28;20026;-72
2022/02/27 04:05:19;;;;;;;12.10;3.70;;;;;;;-0.81;95.03;100139.84;5039597;28;20103;-72
2022/02/27 04:07:45;;;;;;;12.73;3.60;;;;;;;-0.77;95.38;100157.28;5033091;28;20103;-72
2022/02/27 04:10:12;;;;;;;9.82;3.80;;;;;;;-0.75;94.76;100142.09;5022379;28;20108;-72
2022/02/27 04:12:37;;;;;;;12.23;3.70;;;;;;;-0.90;95.01;100127.13;5035035;28;20021;-72
2022/02/27 04:15:04;;;;;;;12.75;4.22;;;;;;;-0.68;94.69;100169.13;5016400;28;20585;-72
2022/02/27 04:17:31;;;;;;;12.73;3.85;;;;;;;-0.86;94.94;100141.94;5033281;28;20044;-72
2022/02/27 04:19:57;;;;;;;15.30;3.92;;;;;;;-0.72;94.91;100149.84;5027616;28;20056;-72
2022/02/27 04:22:22;;;;;;;10.30;3.85;;;;;;;-0.58;94.55;100172.88;5036427;28;20116;-72
2022/02/27 04:24:47;;;;;;;12.80;4.03;;;;;;;-0.93;94.36;100143.25;5032277;28;20029;-72
2022/02/27 04:27:13;;;;;;;8.15;4.00;;;;;;;-0.75;94.69;100171.31;5032182;28;20516;-72
2022/02/27 04:29:38;;;;;;;10.90;4.78;;;;;;;-0.89;94.95;100150.09;5009667;28;20040;-72
2022/02/27 04:32:05;;;;;;;9.45;4.10;;;;;;;-0.68;95.04;100175.31;5010289;28;20025;-72
2022/02/27 04:34:30;;;;;;;12.38;4.22;;;;;;;-0.74;94.90;100180.97;5019330;28;20029;-72
2022/02/27 04:36:55;;;;;;;13.13;4.07;;;;;;;-0.96;95.26;100149.63;5034025;28;20069;-72
2022/02/27 04:39:21;;;;;;;14.10;4.60;;;;;;;-0.91;95.12;100147.53;5018366;28;20025;-73
2022/02/27 04:41:46;;;;;;;9.23;4.05;;;;;;;-0.84;94.56;100160.41;5025755;28;20410;-72
2022/02/27 04:44:11;;;;;;;13.90;3.80;;;;;;;-0.74;94.84;100186.31;5006205;28;20037;-72
2022/02/27 04:46:37;;;;;;;10.18;3.72;;;;;;;-0.97;94.75;100149.69;5033467;28;20033;-73
2022/02/27 04:49:02;;;;;;;12.40;4.45;;;;;;;-1.03;95.07;100156.25;5029949;28;20393;-73
2022/02/27 04:51:27;;;;;;;13.25;4.55;;;;;;;-1.04;95.14;100135.97;5019724;28;20398;-72
2022/02/27 04:53:53;;;;;;;11.27;4.15;;;;;;;-0.72;95.10;100183.56;5020187;28;20029;-72
2022/02/27 04:56:18;;;;;;;9.75;3.70;;;;;;;-0.88;94.52;100149.97;5017714;28;20052;-73
2022/02/27 04:58:43;;;;;;;10.95;4.25;;;;;;;-0.74;93.22;100154.41;5040388;28;20029;-72
2022/02/27 05:01:09;;;;;;;15.68;4.10;;;;;;;-0.75;93.81;100166.00;5030432;28;20056;-72
2022/02/27 05:03:34;;;;;;;12.25;4.25;;;;;;;-0.68;93.46;100177.09;5015583;28;20033;-72
2022/02/27 05:05:59;;;;;;;13.00;4.35;;;;;;;-0.78;93.72;100176.84;5007286;28;20459;-72
2022/02/27 05:08:24;;;;;;;11.98;3.95;;;;;;;-0.88;94.65;100165.06;5038722;28;20564;-72
2022/02/27 05:10:50;;;;;;;9.48;4.35;;;;;;;-0.91;94.88;100173.25;5030905;28;20021;-72
2022/02/27 05:13:15;;;;;;;12.07;4.40;;;;;;;-1.06;95.29;100167.09;5025172;28;20022;-72
2022/02/27 05:15:40;;;;;;;10.15;4.47;;;;;;;-1.33;96.02;100148.41;5032910;28;20043;-72
2022/02/27 05:18:06;;;;;;;9.38;4.15;;;;;;;-1.37;96.12;100154.84;5014586;28;20400;-72
2022/02/27 05:20:31;;;;;;;10.13;4.35;;;;;;;-1.56;96.69;100147.16;5028256;28;20397;-72
2022/02/27 05:22:56;;;;;;;19.77;4.65;;;;;;;-1.56;97.24;100155.97;5027075;28;20394;-72
2022/02/27 05:25:23;;;;;;;14.63;4.57;;;;;;;-1.54;98.99;100185.09;5026263;28;20473;-72
2022/02/27 05:27:53;;;;;;;10.75;4.15;;;;;;;-1.66;99.19;100186.66;5017744;28;20028;-72
2022/02/27 05:30:21;;;;;;;14.50;4.78;;;;;;;-1.58;99.29;100184.41;5012291;28;20027;-72
2022/02/27 05:32:46;;;;;;;18.20;4.68;;;;;;;-1.73;99.44;100152.63;5031616;28;20033;-72
2022/02/27 05:35:12;;;;;;;12.95;3.88;;;;;;;-1.55;98.62;100192.19;5028787;28;20029;-72
2022/02/27 05:37:37;;;;;;;11.30;3.92;;;;;;;-1.50;98.68;100191.91;5029624;28;20065;-73
2022/02/27 05:40:04;;;;;;;11.57;3.88;;;;;;;-1.66;99.17;100184.00;5040936;28;20076;-72
2022/02/27 05:42:30;;;;;;;8.95;4.07;;;;;;;-1.60;98.24;100188.09;5052904;28;20025;-72
2022/02/27 05:44:55;;;;;;;12.52;3.92;;;;;;;-1.65;98.33;100166.28;5058251;28;20563;-72
2022/02/27 05:47:21;;;;;;;15.52;4.22;;;;;;;-1.66;98.18;100176.03;5038084;28;20021;-72
2022/02/27 05:49:47;;;;;;;10.20;4.07;;;;;;;-1.65;98.15;100183.09;5059579;28;20076;-72
2022/02/27 05:52:12;;;;;;;9.73;3.88;;;;;;;-1.52;97.69;100195.59;5042555;28;20040;-74
2022/02/27 05:54:37;;;;;;;13.32;4.60;;;;;;;-1.66;97.72;100168.09;5042106;28;20033;-73
2022/02/27 05:57:03;;;;;;;10.73;4.20;;;;;;;-1.29;97.17;100215.44;5034784;28;20052;-72
2022/02/27 05:59:28;;;;;;;10.77;4.43;;;;;;;-1.39;96.32;100177.97;5012748;28;20114;-73
2022/02/27 06:01:54;;;;;;;12.23;4.35;;;;;;;-1.21;95.78;100190.13;5028961;28;20018;-73
2022/02/27 06:04:19;;;;;;;10.63;4.47;;;;;;;-1.06;95.17;100198.09;5031491;28;20017;-74
2022/02/27 06:06:44;;;;;;;21.73;4.72;;;;;;;-0.94;94.55;100213.28;5038273;28;20068;-74
2022/02/27 06:09:11;;;;;;;7.35;4.00;;;;;;;-0.91;94.31;100213.09;5033160;28;20026;-76
2022/02/27 06:11:49;;;;;;;8.70;4.15;;;;;;;-1.01;93.64;100201.34;5043304;28;20067;-81
2022/02/27 06:17:40;;;;;;;15.18;4.85;;;;;;;-1.63;94.80;100132.56;5018773;28;20119;-82
2022/02/27 06:20:10;;;;;;;9.95;4.13;;;;;;;-1.16;94.37;100211.09;4999611;28;20022;-81
2022/02/27 06:22:55;;;;;;;13.70;4.35;;;;;;;-1.28;95.10;100194.13;5000230;28;20026;-81
2022/02/27 06:25:21;;;;;;;16.92;4.45;;;;;;;-1.81;94.75;100097.38;5008699;28;20026;-81
2022/02/27 06:27:46;;;;;;;10.02;4.13;;;;;;;-1.06;94.80;100224.66;4998573;28;20032;-81
2022/02/27 06:30:16;;;;;;;14.85;4.15;;;;;;;-1.33;94.66;100193.56;5025626;28;20114;-82
2022/02/27 06:32:42;;;;;;;10.95;4.20;;;;;;;-1.01;94.35;100230.56;4999854;28;20111;-85
2022/02/27 06:35:11;;;;;;;10.57;4.93;;;;;;;-1.40;94.54;100152.38;5011783;28;20024;-86
2022/02/27 06:37:42;;;;;;;9.93;4.60;;;;;;;-1.14;92.66;100105.63;5039738;28;20080;-88
2022/02/27 06:40:21;;;;;;;;;;;;;;;;;;;;;
2022/02/27 06:42:49;;;;;;;10.13;3.17;;;;;;;2.23;72.76;99981.44;5044156;28;20485;-84
2022/02/27 06:45:16;;;;;;;11.05;3.72;;;;;;;3.86;64.68;100086.72;5022446;28;20041;-80
2022/02/27 06:47:42;;;;;;;10.63;3.80;;;;;;;5.56;60.38;100202.50;5038749;28;20039;-84
2022/02/27 06:50:09;;;;;;;11.15;4.10;;;;;;;6.08;58.79;100176.34;5028479;28;20033;-83
2022/02/27 06:52:34;;;;;;;9.73;4.40;;;;;;;7.21;56.04;100197.09;5022510;28;20584;-72
2022/02/27 06:54:59;;;;;;;11.80;4.43;;;;;;;6.68;54.96;100165.38;5039049;28;20052;-75
2022/02/27 06:57:25;;;;;;;10.38;4.30;;;;;;;7.77;52.26;100206.03;5023711;28;20504;-80
2022/02/27 06:59:50;;;;;;;12.43;4.28;;;;;;;7.97;52.13;100231.03;5009571;28;20026;-84
2022/02/27 07:02:15;;;;;;;11.65;4.47;;;;;;;8.51;50.35;100202.25;5013809;28;20013;-82
2022/02/27 07:04:41;;;;;;;10.02;4.05;;;;;;;9.56;48.28;100220.16;5015974;28;20492;-83
2022/02/27 07:07:06;;;;;;;10.60;3.65;;;;;;;10.52;46.46;100178.31;5017403;28;20037;-77
2022/02/27 07:09:32;;;;;;;8.32;3.85;;;;;;;10.83;44.09;100191.16;5020419;28;21880;-80
2022/02/27 07:11:57;;;;;;;11.15;3.97;;;;;;;11.24;43.24;100207.31;5023237;28;20030;-79
2022/02/27 07:14:24;;;;;;;6.53;4.00;;;;;;;11.86;42.56;100229.16;5031167;28;20030;-80
2022/02/27 07:16:49;;;;;;;10.52;4.30;;;;;;;11.37;42.00;100210.34;5024469;28;20021;-79
2022/02/27 07:19:15;;;;;;;9.05;4.13;;;;;;;11.88;42.12;100227.13;5021664;28;20017;-80
2022/02/27 07:21:40;;;;;;;8.88;4.25;;;;;;;11.59;41.32;100127.44;5021584;28;20033;-79
2022/02/27 07:24:06;;;;;;;8.43;4.60;;;;;;;10.69;43.83;100250.38;5009649;28;20021;-65
2022/02/27 07:26:31;;;;;;;9.40;4.80;;;;;;;11.99;42.61;100232.16;5033494;28;20047;-63
2022/02/27 07:28:57;;;;;;;11.73;4.25;;;;;;;12.09;41.65;100234.66;5028850;28;20045;-66
2022/02/27 07:31:22;;;;;;;9.63;4.13;;;;;;;11.96;41.12;100218.09;5031113;28;20037;-78
2022/02/27 07:33:49;;;;;;;7.55;3.78;;;;;;;11.87;40.90;100224.56;5013847;28;20021;-78
2022/02/27 07:36:14;;;;;;;8.43;4.25;;;;;;;11.74;42.08;100223.25;5017197;28;20071;-83
2022/02/27 07:38:40;;;;;;;8.02;4.55;;;;;;;10.93;42.87;100246.00;5019154;28;20072;-84
2022/02/27 07:41:06;;;;;;;11.15;4.05;;;;;;;10.71;43.83;100199.59;5023746;28;20501;-77
2022/02/27 07:43:32;;;;;;;7.82;3.85;;;;;;;11.67;41.62;100189.75;5046127;28;20081;-79
2022/02/27 07:45:57;;;;;;;9.65;4.20;;;;;;;11.61;41.04;100166.91;5021575;28;20100;-80
2022/02/27 07:48:22;;;;;;;11.15;4.35;;;;;;;10.66;43.21;100168.66;5030001;28;20045;-74
2022/02/27 07:50:48;;;;;;;13.27;4.35;;;;;;;10.91;43.40;100234.47;5041113;28;20025;-67
2022/02/27 07:53:13;;;;;;;9.48;4.97;;;;;;;10.65;44.13;100253.59;5034829;28;20381;-82
2022/02/27 07:55:38;;;;;;;9.18;4.35;;;;;;;10.03;44.54;100183.63;5013942;28;20032;-79
2022/02/27 07:58:04;;;;;;;7.80;3.72;;;;;;;12.04;42.02;100228.91;5040760;28;20032;-78
2022/02/27 08:00:30;;;;;;;8.18;4.03;;;;;;;11.05;42.75;100260.84;5019474;28;20439;-79
2022/02/27 08:02:56;;;;;;;7.20;4.25;;;;;;;8.38;48.26;100226.03;5034916;28;20021;-77
2022/02/27 08:05:22;;;;;;;11.23;3.60;;;;;;;9.82;46.23;100255.25;5022255;28;20055;-77
2022/02/27 08:07:47;;;;;;;12.60;4.57;;;;;;;10.77;44.00;100225.19;5016779;28;20029;-79
2022/02/27 08:10:13;;;;;;;10.57;4.20;;;;;;;12.09;42.05;100241.94;5041106;28;20029;-77
2022/02/27 08:12:45;;;;;;;14.68;4.25;;;;;;;13.08;39.76;100242.91;5031988;28;20111;-82
2022/02/27 08:15:12;;;;;;;12.20;4.38;;;;;;;12.03;41.30;100248.94;5011351;28;20033;-80
2022/02/27 08:17:37;;;;;;;10.63;4.82;;;;;;;12.46;40.88;100252.06;5019388;28;20040;-83
2022/02/27 08:20:03;;;;;;;5.85;3.20;;;;;;;11.40;41.99;100261.50;5014913;28;20037;-72
2022/02/27 08:22:29;;;;;;;8.50;4.10;;;;;;;10.98;43.05;100249.03;5036733;28;20025;-70
2022/02/27 08:24:54;;;;;;;9.82;3.55;;;;;;;11.81;41.90;100239.66;5038604;28;20025;-70
2022/02/27 08:27:19;;;;;;;8.32;3.70;;;;;;;13.01;39.73;100261.81;5041380;28;20039;-71
2022/02/27 08:29:45;;;;;;;7.88;3.25;;;;;;;12.38;40.11;100235.81;5043144;28;20025;-70
2022/02/27 08:32:10;;;;;;;10.32;3.50;;;;;;;11.77;41.27;100260.03;5036924;28;20531;-70
2022/02/27 08:34:35;;;;;;;8.05;3.22;;;;;;;12.16;41.18;100267.34;5038684;28;20038;-69
2022/02/27 08:37:01;;;;;;;6.72;3.53;;;;;;;11.55;41.57;100240.78;5035013;28;20022;-70
2022/02/27 08:39:26;;;;;;;9.55;3.55;;;;;;;12.27;40.61;100259.63;5029046;28;20025;-71
2022/02/27 08:41:51;;;;;;;7.78;3.53;;;;;;;12.03;41.01;100255.19;5028086;28;20495;-71
2022/02/27 08:44:17;;;;;;;7.80;3.58;;;;;;;11.87;41.15;100258.00;5031531;28;20026;-84
2022/02/27 08:46:42;;;;;;;8.27;3.17;;;;;;;12.68;39.68;100247.63;5015370;28;20057;-78
2022/02/27 08:49:07;;;;;;;7.95;3.72;;;;;;;12.85;39.28;100249.22;5012799;28;20026;-79
2022/02/27 08:51:33;;;;;;;9.23;3.83;;;;;;;11.83;40.54;100262.03;5010360;28;20064;-79
2022/02/27 08:53:59;;;;;;;5.63;3.05;;;;;;;12.90;39.01;100252.22;5011428;28;20044;-78
2022/02/27 08:56:24;;;;;;;5.40;3.03;;;;;;;12.86;38.64;100221.03;5007287;28;20049;-77
2022/02/27 08:58:49;;;;;;;5.82;3.20;;;;;;;13.41;37.87;100264.34;5014625;28;20495;-68
2022/02/27 09:01:15;;;;;;;6.47;3.38;;;;;;;12.59;39.08;100265.03;5032442;28;20043;-68
2022/02/27 09:03:40;;;;;;;9.73;3.65;;;;;;;12.90;38.60;100252.22;5029317;28;20025;-68
2022/02/27 09:06:05;;;;;;;6.72;3.55;;;;;;;13.59;38.07;100252.06;5035133;28;20111;-68
2022/02/27 09:08:31;;;;;;;7.72;3.38;;;;;;;13.08;38.25;100256.50;5036247;28;20052;-69
2022/02/27 09:10:57;;;;;;;7.05;3.40;;;;;;;13.46;38.48;100251.88;5030202;28;20543;-69
2022/02/27 09:13:22;;;;;;;5.63;2.95;;;;;;;13.78;37.22;100253.41;5035395;28;20028;-68
2022/02/27 09:15:47;;;;;;;7.57;3.30;;;;;;;14.87;35.57;100250.66;5024414;28;20527;-68
2022/02/27 09:18:13;;;;;;;8.18;2.80;;;;;;;13.70;36.03;100223.59;5029629;28;20494;-68
2022/02/27 09:20:38;;;;;;;7.38;2.67;;;;;;;13.79;37.39;100241.47;5027205;28;20400;-69
2022/02/27 09:23:03;;;;;;;6.82;2.90;;;;;;;13.51;36.79;100245.88;5032969;28;20013;-69
2022/02/27 09:25:30;;;;;;;7.47;3.42;;;;;;;13.88;36.83;100246.81;5041234;28;20140;-68
2022/02/27 09:27:55;;;;;;;10.35;3.35;;;;;;;13.58;37.36;100244.94;5042126;28;20563;-68
2022/02/27 09:30:20;;;;;;;5.88;3.03;;;;;;;13.85;37.81;100241.75;5034890;28;20045;-69
2022/02/27 09:32:46;;;;;;;6.63;3.05;;;;;;;13.89;35.95;100233.03;5027990;28;20036;-69
2022/02/27 09:35:11;;;;;;;6.70;2.83;;;;;;;15.04;34.79;100240.34;5044219;28;20445;-67
2022/02/27 09:37:38;;;;;;;7.82;3.25;;;;;;;14.42;34.71;100238.25;5035811;28;20029;-67
2022/02/27 09:40:04;;;;;;;8.00;3.10;;;;;;;12.14;38.03;100226.81;5039521;28;21624;-69
2022/02/27 09:42:32;;;;;;;8.35;3.20;;;;;;;11.44;39.09;100253.84;5032799;28;20021;-69
2022/02/27 09:44:58;;;;;;;5.78;3.03;;;;;;;10.36;40.97;100237.84;5030059;28;20025;-71
2022/02/27 09:47:25;;;;;;;7.22;2.85;;;;;;;11.35;39.80;100244.91;5022014;28;20112;-70
2022/02/27 09:49:53;;;;;;;6.78;2.92;;;;;;;12.24;38.91;100245.59;5025766;28;20029;-68
2022/02/27 09:52:21;;;;;;;8.23;2.97;;;;;;;11.27;40.09;100247.63;5015379;28;20403;-70
2022/02/27 09:54:48;;;;;;;8.35;3.22;;;;;;;12.46;38.61;100247.47;5028740;28;20523;-69
2022/02/27 09:57:14;;;;;;;5.45;2.80;;;;;;;10.22;41.13;100226.63;5029307;28;20044;-68
2022/02/27 09:59:42;;;;;;;6.47;3.15;;;;;;;10.13;42.00;100230.31;5030749;28;20032;-68
2022/02/27 10:02:07;;;;;;;5.18;2.30;;;;;;;10.40;41.66;100244.59;5035059;28;20108;-70
2022/02/27 10:04:45;;;;;;;5.78;2.45;;;;;;;10.73;40.49;100240.91;5038118;28;20170;-73
2022/02/27 10:07:15;;;;;;;7.80;2.60;;;;;;;10.94;39.51;100234.13;5026979;28;20030;-70
2022/02/27 10:09:42;;;;;;;7.22;2.90;;;;;;;11.57;38.73;100233.31;5030387;28;20111;-68
2022/02/27 10:12:16;;;;;;;5.63;2.42;;;;;;;9.99;40.37;100229.09;5018705;28;20068;-71
2022/02/27 10:14:54;;;;;;;8.85;2.95;;;;;;;11.12;38.78;100225.81;5036518;28;20031;-70
2022/02/27 10:17:27;;;;;;;5.00;2.42;;;;;;;11.33;38.48;100233.41;5036633;28;20033;-70
2022/02/27 10:19:53;;;;;;;5.72;2.33;;;;;;;12.80;36.72;100234.50;5026841;28;20503;-70
2022/02/27 10:22:28;;;;;;;5.82;2.42;;;;;;;12.61;35.84;100231.25;5026058;28;20021;-68
2022/02/27 10:24:56;;;;;;;7.43;2.38;;;;;;;13.11;35.07;100228.94;5023205;28;20061;-69
2022/02/27 10:27:22;;;;;;;7.95;2.35;;;;;;;13.97;34.20;100232.06;5027572;28;20088;-68
2022/02/27 10:29:47;;;;;;;4.43;2.03;;;;;;;14.80;32.50;100230.69;5033908;28;20732;-68
2022/02/27 10:32:13;;;;;;;3.88;2.00;;;;;;;16.00;31.18;100226.03;5007848;28;20029;-69
2022/02/27 10:34:39;;;;;;;7.03;2.00;;;;;;;15.05;31.11;100231.09;5028797;28;20024;-67
2022/02/27 10:37:09;;;;;;;6.35;2.20;;;;;;;15.80;30.56;100211.44;5026125;28;20120;-67
2022/02/27 10:39:46;;;;;;;5.38;2.22;;;;;;;15.77;29.74;100208.09;5034829;28;20034;-68
2022/02/27 10:42:26;;;;;;;3.58;2.05;;;;;;;11.53;35.11;100217.59;5032342;28;20071;-69
2022/02/27 10:45:06;;;;;;;6.32;2.03;;;;;;;9.91;38.05;100233.66;5031653;28;20486;-69
2022/02/27 10:47:32;;;;;;;;;;;;;;;12.20;35.39;100217.09;5032022;28;20120;-69
2022/02/27 10:50:11;;;;;;;3.70;2.08;;;;;;;13.85;32.54;100203.66;5022688;28;19971;-70
2022/02/27 10:52:42;;;;;;;4.88;2.00;;;;;;;13.56;32.51;100194.50;5023077;28;20040;-68
2022/02/27 10:55:08;;;;;;;4.63;2.00;;;;;;;13.91;32.07;100194.72;5035498;28;20036;-68
2022/02/27 10:57:45;;;;;;;5.65;2.10;;;;;;;15.40;30.06;100201.13;5036607;28;20029;-69
2022/02/27 11:00:11;;;;;;;4.82;2.30;;;;;;;15.01;30.56;100202.56;5039088;28;20555;-67
2022/02/27 11:02:37;;;;;;;3.63;1.90;;;;;;;15.65;29.46;100200.66;5037301;28;20017;-68
2022/02/27 11:05:06;;;;;;;5.93;1.85;;;;;;;15.72;29.33;100198.84;5021254;28;20167;-67
2022/02/27 11:07:34;;;;;;;4.35;1.77;;;;;;;15.10;30.10;100193.19;5034931;28;20021;-67
2022/02/27 11:10:00;;;;;;;4.68;1.88;;;;;;;15.04;29.61;100194.00;5032738;28;20034;-67
2022/02/27 11:12:27;;;;;;;3.33;1.65;;;;;;;12.88;31.68;100193.69;5033840;28;20029;-67
2022/02/27 11:14:54;;;;;;;3.33;1.77;;;;;;;13.96;31.38;100192.28;5030392;28;20024;-69
2022/02/27 11:17:20;;;;;;;3.33;1.90;;;;;;;14.03;29.80;100194.03;5020177;28;20033;-67
2022/02/27 11:19:45;;;;;;;3.58;1.73;;;;;;;14.73;29.86;100180.75;5040124;28;20024;-66
2022/02/27 11:22:11;;;;;;;5.50;1.75;;;;;;;14.74;29.63;100185.16;5036684;28;20037;-66
2022/02/27 11:24:38;;;;;;;4.57;1.60;;;;;;;15.47;28.98;100180.22;5025233;28;20029;-66